createdAt,value
2018-06-29T00:00:11.576Z,98449.38
2018-06-29T00:02:40.578Z,98455.37
2018-06-29T00:05:10.002Z,98465.78
2018-06-29T00:07:39.079Z,98460.27
2018-06-29T00:10:08.060Z,98467.97
2018-06-29T00:12:37.183Z,98460.39
2018-06-29T00:15:06.503Z,98466.34
2018-06-29T00:17:36.646Z,98461.34
2018-06-29T00:20:06.713Z,98466.70
2018-06-29T00:22:35.605Z,98471.19
2018-06-29T00:25:04.406Z,98462.77
2018-06-29T00:27:33.376Z,98469.67
2018-06-29T00:30:02.363Z,98471.52
2018-06-29T00:32:31.632Z,98467.34
2018-06-29T00:35:01.274Z,98466.84
2018-06-29T00:37:30.216Z,98474.81
2018-06-29T00:39:59.344Z,98466.92
2018-06-29T00:42:28.429Z,98468.94
2018-06-29T00:44:58.227Z,98469.22
2018-06-29T00:47:27.265Z,98469.98
2018-06-29T00:49:57.101Z,98473.59
2018-06-29T00:52:25.937Z,98476.56
2018-06-29T00:54:54.885Z,98470.91
2018-06-29T00:57:24.191Z,98471.46
2018-06-29T00:59:53.404Z,98473.88
2018-06-29T01:02:24.096Z,98475.59
2018-06-29T01:04:53.798Z,98478.03
2018-06-29T01:07:23.532Z,98479.14
2018-06-29T01:09:53.297Z,98479.14
2018-06-29T01:12:22.547Z,98474.67
2018-06-29T01:14:52.041Z,98468.55
2018-06-29T01:17:22.222Z,98480.73
2018-06-29T01:19:51.348Z,98479.22
2018-06-29T01:22:20.915Z,98475.63
2018-06-29T01:24:50.589Z,98476.25
2018-06-29T01:27:20.326Z,98478.70
2018-06-29T01:29:49.207Z,98479.24
2018-06-29T01:32:18.792Z,98464.78
2018-06-29T01:34:47.575Z,98471.15
2018-06-29T01:37:16.631Z,98465.15
2018-06-29T01:39:45.745Z,98467.97
2018-06-29T01:42:15.435Z,98455.91
2018-06-29T01:44:44.362Z,98457.64
2018-06-29T01:47:13.314Z,98448.57
2018-06-29T01:49:42.458Z,98448.81
2018-06-29T01:52:11.701Z,98450.16
2018-06-29T01:54:40.731Z,98450.36
2018-06-29T01:57:09.791Z,98447.79
2018-06-29T01:59:38.834Z,98443.48
2018-06-29T02:02:08.093Z,98446.20
2018-06-29T02:04:38.526Z,98438.91
2018-06-29T02:07:07.712Z,98449.28
2018-06-29T02:09:37.476Z,98440.45
2018-06-29T02:12:07.084Z,98448.72
2018-06-29T02:14:35.869Z,98442.02
2018-06-29T02:17:06.064Z,98439.15
2018-06-29T02:19:35.221Z,98446.13
2018-06-29T02:22:04.198Z,98443.18
2018-06-29T02:24:33.136Z,98437.29
2018-06-29T02:27:02.119Z,98436.09
2018-06-29T02:29:31.032Z,98436.23
2018-06-29T02:31:59.850Z,98439.94
2018-06-29T02:34:29.458Z,98435.83
2018-06-29T02:36:58.550Z,98438.13
2018-06-29T02:39:28.113Z,98424.27
2018-06-29T02:41:57.210Z,98420.64
2018-06-29T02:44:26.223Z,98423.06
2018-06-29T02:46:55.169Z,98426.10
2018-06-29T02:49:24.021Z,98430.83
2018-06-29T02:51:53.069Z,98435.75
2018-06-29T02:54:22.006Z,98430.67
2018-06-29T02:56:50.985Z,98431.23
2018-06-29T02:59:20.253Z,98421.98
2018-06-29T03:01:49.832Z,98424.02
2018-06-29T03:04:18.707Z,98417.00
2018-06-29T03:06:47.793Z,98417.81
2018-06-29T03:09:16.801Z,98428.18
2018-06-29T03:11:46.373Z,98425.09
2018-06-29T03:14:15.350Z,98426.84
2018-06-29T03:16:44.431Z,98430.50
2018-06-29T03:19:13.537Z,98443.30
2018-06-29T03:21:42.503Z,98437.83
2018-06-29T03:24:11.870Z,98432.14
2018-06-29T03:26:41.091Z,98434.73
2018-06-29T03:29:10.342Z,98436.25
2018-06-29T03:31:39.425Z,98435.65
2018-06-29T03:34:09.676Z,98433.28
2018-06-29T03:36:38.802Z,98435.47
2018-06-29T03:39:09.485Z,98430.80
2018-06-29T03:41:38.434Z,98430.55
2018-06-29T03:44:07.542Z,98430.45
2018-06-29T03:46:36.615Z,98423.63
2018-06-29T03:49:05.478Z,98424.63
2018-06-29T03:51:34.504Z,98425.88
2018-06-29T03:54:03.726Z,98424.13
2018-06-29T03:56:32.840Z,98416.73
2018-06-29T03:59:02.184Z,98411.71
2018-06-29T04:01:31.295Z,98413.32
2018-06-29T04:04:00.234Z,98412.87
2018-06-29T04:06:29.448Z,98416.33
2018-06-29T04:08:58.776Z,98427.28
2018-06-29T04:11:27.942Z,98428.41
2018-06-29T04:13:57.749Z,98425.88
2018-06-29T04:16:27.297Z,98424.02
2018-06-29T04:18:56.386Z,98427.47
2018-06-29T04:21:25.911Z,98424.47
2018-06-29T04:23:55.196Z,98428.02
2018-06-29T04:26:24.358Z,98426.19
2018-06-29T04:28:53.487Z,98437.38
2018-06-29T04:31:22.751Z,98430.50
2018-06-29T04:33:51.647Z,98427.39
2018-06-29T04:36:20.848Z,98427.79
2018-06-29T04:38:49.711Z,98423.42
2018-06-29T04:41:18.698Z,98423.39
2018-06-29T04:43:47.727Z,98417.27
2018-06-29T04:46:16.901Z,98424.72
2018-06-29T04:48:45.630Z,98418.23
2018-06-29T04:51:14.517Z,98418.55
2018-06-29T04:53:44.011Z,98405.54
2018-06-29T04:56:13.212Z,98410.88
2018-06-29T04:58:42.741Z,98407.47
2018-06-29T05:01:11.596Z,98405.28
2018-06-29T05:03:40.454Z,98397.95
2018-06-29T05:06:09.376Z,98403.91
2018-06-29T05:08:38.133Z,98397.92
2018-06-29T05:11:07.213Z,98395.53
2018-06-29T05:13:36.124Z,98393.30
2018-06-29T05:16:05.491Z,98400.58
2018-06-29T05:18:34.588Z,98412.16
2018-06-29T05:21:04.300Z,98418.84
2018-06-29T05:23:33.232Z,98417.11
2018-06-29T05:26:03.303Z,98416.34
2018-06-29T05:28:32.959Z,98419.88
2018-06-29T05:31:01.984Z,98414.98
2018-06-29T05:33:31.590Z,98412.04
2018-06-29T05:36:01.503Z,98416.14
2018-06-29T05:38:30.880Z,98414.52
2018-06-29T05:41:00.021Z,98421.15
2018-06-29T05:43:29.130Z,98426.06
2018-06-29T05:45:58.095Z,98425.14
2018-06-29T05:48:27.010Z,98426.97
2018-06-29T05:51:14.028Z,98427.77
2018-06-29T05:53:42.966Z,98424.47
2018-06-29T05:56:12.389Z,98426.96
2018-06-29T05:58:41.196Z,98424.18
2018-06-29T06:01:11.968Z,98435.66
2018-06-29T06:03:41.458Z,98438.03
2018-06-29T06:06:10.434Z,98440.25
2018-06-29T06:08:39.308Z,98437.59
2018-06-29T06:11:08.131Z,98432.69
2018-06-29T06:13:36.968Z,98432.90
2018-06-29T06:16:06.050Z,98432.20
2018-06-29T06:18:35.089Z,98438.89
2018-06-29T06:21:04.591Z,98432.17
2018-06-29T06:23:34.442Z,98428.84
2018-06-29T06:26:03.776Z,98440.22
2018-06-29T06:28:32.700Z,98435.23
2018-06-29T06:31:01.905Z,98432.65
2018-06-29T06:33:30.987Z,98430.31
2018-06-29T06:36:00.113Z,98424.38
2018-06-29T06:38:29.882Z,98418.11
2018-06-29T06:40:59.266Z,98408.31
2018-06-29T06:43:27.915Z,98401.99
2018-06-29T06:45:57.114Z,98403.93
2018-06-29T06:48:26.177Z,98407.06
2018-06-29T06:50:55.702Z,98417.41
2018-06-29T06:53:25.192Z,98422.78
2018-06-29T06:55:54.355Z,98410.70
2018-06-29T06:58:24.047Z,98411.82
2018-06-29T07:00:52.854Z,98412.95
2018-06-29T07:03:21.664Z,98412.05
2018-06-29T07:05:50.761Z,98414.03
2018-06-29T07:08:19.824Z,98408.61
2018-06-29T07:10:49.005Z,98410.91
2018-06-29T07:13:17.753Z,98416.02
2018-06-29T07:15:47.216Z,98418.03
2018-06-29T07:18:16.442Z,98425.72
2018-06-29T07:20:45.143Z,98429.94
2018-06-29T07:23:14.425Z,98426.03
2018-06-29T07:25:43.254Z,98417.13
2018-06-29T07:28:12.252Z,98415.53
2018-06-29T07:30:41.265Z,98415.29
2018-06-29T07:33:10.170Z,98414.19
2018-06-29T07:35:39.107Z,98421.31
2018-06-29T07:38:08.006Z,98422.31
2018-06-29T07:40:37.429Z,98429.08
2018-06-29T07:43:06.888Z,98427.32
2018-06-29T07:45:35.887Z,98426.99
2018-06-29T07:48:04.930Z,98420.45
2018-06-29T07:50:34.230Z,98426.09
2018-06-29T07:53:03.969Z,98418.58
2018-06-29T07:55:34.221Z,98427.83
2018-06-29T07:58:03.791Z,98428.73
2018-06-29T08:00:32.853Z,98421.91
2018-06-29T08:03:02.050Z,98421.70
2018-06-29T08:05:31.413Z,98410.45
2018-06-29T08:08:00.673Z,98410.99
2018-06-29T08:10:29.668Z,98417.63
2018-06-29T08:12:59.613Z,98423.20
2018-06-29T08:15:29.787Z,98413.91
2018-06-29T08:17:58.929Z,98416.92
2018-06-29T08:20:27.736Z,98421.50
2018-06-29T08:22:56.692Z,98420.09
2018-06-29T08:25:25.556Z,98419.72
2018-06-29T08:27:54.564Z,98428.91
2018-06-29T08:30:24.343Z,98425.47
2018-06-29T08:32:53.370Z,98429.88
2018-06-29T08:35:22.074Z,98426.44
2018-06-29T08:37:51.092Z,98420.87
2018-06-29T08:40:20.292Z,98423.39
2018-06-29T08:42:50.247Z,98420.51
2018-06-29T08:45:19.236Z,98422.44
2018-06-29T08:47:48.808Z,98423.30
2018-06-29T08:50:18.775Z,98412.16
2018-06-29T08:52:47.756Z,98422.15
2018-06-29T08:55:16.682Z,98429.09
2018-06-29T08:57:45.812Z,98430.30
2018-06-29T09:00:15.973Z,98430.64
2018-06-29T09:02:45.428Z,98429.03
2018-06-29T09:05:14.573Z,98425.36
2018-06-29T09:07:43.274Z,98425.65
2018-06-29T09:10:12.387Z,98428.89
2018-06-29T09:12:41.317Z,98423.20
2018-06-29T09:15:10.984Z,98417.98
2018-06-29T09:17:39.683Z,98414.52
2018-06-29T09:20:08.733Z,98411.08
2018-06-29T09:22:38.196Z,98416.00
2018-06-29T09:25:07.929Z,98412.84
2018-06-29T09:27:37.106Z,98413.18
2018-06-29T09:30:06.917Z,98407.20
2018-06-29T09:32:35.795Z,98409.31
2018-06-29T09:35:05.989Z,98398.55
2018-06-29T09:37:35.489Z,98401.87
2018-06-29T09:40:04.569Z,98405.23
2018-06-29T09:42:34.144Z,98404.03
2018-06-29T09:45:03.010Z,98398.51
2018-06-29T09:47:31.928Z,98392.37
2018-06-29T09:50:01.921Z,98400.04
2018-06-29T09:52:30.813Z,98393.45
2018-06-29T09:54:59.515Z,98393.25
2018-06-29T09:57:29.068Z,98392.75
2018-06-29T09:59:58.109Z,98388.93
2018-06-29T10:02:31.689Z,98399.27
2018-06-29T10:04:56.215Z,98397.46
2018-06-29T10:07:26.071Z,98394.77
2018-06-29T10:09:55.935Z,98394.08
2018-06-29T10:12:25.164Z,98389.92
2018-06-29T10:14:54.182Z,98394.88
2018-06-29T10:17:23.118Z,98381.88
2018-06-29T10:19:51.902Z,98380.55
2018-06-29T10:22:20.993Z,98376.67
2018-06-29T10:24:49.853Z,98372.23
2018-06-29T10:27:18.850Z,98377.06
2018-06-29T10:29:47.749Z,98375.03
2018-06-29T10:32:16.609Z,98377.28
2018-06-29T10:34:45.889Z,98375.70
2018-06-29T10:37:15.177Z,98368.63
2018-06-29T10:39:44.050Z,98368.35
2018-06-29T10:42:12.932Z,98369.64
2018-06-29T10:44:41.957Z,98370.31
2018-06-29T10:47:10.747Z,98360.72
2018-06-29T10:49:39.498Z,98361.36
2018-06-29T10:52:08.427Z,98362.28
2018-06-29T10:54:37.458Z,98363.88
2018-06-29T10:57:07.680Z,98359.30
2018-06-29T10:59:36.769Z,98354.37
2018-06-29T11:02:06.214Z,98346.69
2018-06-29T11:04:35.872Z,98348.52
2018-06-29T11:07:04.762Z,98344.75
2018-06-29T11:09:33.970Z,98345.52
2018-06-29T11:12:02.985Z,98344.14
2018-06-29T11:14:31.750Z,98343.59
2018-06-29T11:17:04.927Z,98341.33
2018-06-29T11:23:09.577Z,98329.55
2018-06-29T11:25:38.753Z,98329.30
2018-06-29T11:28:07.674Z,98333.50
2018-06-29T11:30:37.343Z,98331.94
2018-06-29T11:33:06.192Z,98331.55
2018-06-29T11:35:34.971Z,98329.05
2018-06-29T11:38:04.000Z,98329.20
2018-06-29T11:40:34.316Z,98320.36
2018-06-29T11:43:05.748Z,98316.59
2018-06-29T11:45:38.812Z,98318.11
2018-06-29T11:48:11.673Z,98318.11
2018-06-29T11:50:40.722Z,98311.89
2018-06-29T11:53:09.861Z,98307.35
2018-06-29T11:55:40.053Z,98309.57
2018-06-29T11:58:09.675Z,98304.31
2018-06-29T12:00:38.436Z,98297.69
2018-06-29T12:03:07.854Z,98292.50
2018-06-29T12:05:36.646Z,98290.69
2018-06-29T12:08:06.707Z,98279.84
2018-06-29T12:10:35.628Z,98280.45
2018-06-29T12:13:05.320Z,98287.39
2018-06-29T12:15:35.264Z,98295.55
2018-06-29T12:18:04.651Z,98285.53
2018-06-29T12:20:33.540Z,98282.59
2018-06-29T12:23:02.458Z,98281.00
2018-06-29T12:25:31.509Z,98275.20
2018-06-29T12:28:00.323Z,98266.11
2018-06-29T12:30:29.251Z,98269.67
2018-06-29T12:32:58.133Z,98269.28
2018-06-29T12:35:27.272Z,98271.41
2018-06-29T12:37:56.678Z,98262.32
2018-06-29T12:40:28.377Z,98264.94
2018-06-29T12:45:50.346Z,98259.69
2018-06-29T12:48:19.303Z,98260.70
2018-06-29T12:50:48.318Z,98257.30
2018-06-29T12:53:18.231Z,98262.75
2018-06-29T12:55:47.087Z,98260.43
2018-06-29T12:58:16.150Z,98259.27
2018-06-29T13:00:45.318Z,98254.07
2018-06-29T13:03:14.784Z,98244.06
2018-06-29T13:05:43.676Z,98247.34
2018-06-29T13:08:15.259Z,98255.16
2018-06-29T13:19:22.567Z,98224.94
2018-06-29T13:21:51.298Z,98225.17
2018-06-29T13:24:20.599Z,98228.17
2018-06-29T13:26:49.994Z,98226.27
2018-06-29T13:29:18.784Z,98216.15
2018-06-29T13:31:47.905Z,98219.09
2018-06-29T13:34:16.932Z,98219.33
2018-06-29T13:36:45.645Z,98207.95
2018-06-29T13:39:14.645Z,98205.86
2018-06-29T13:41:44.577Z,98206.33
2018-06-29T13:44:13.771Z,98206.16
2018-06-29T13:46:42.720Z,98209.82
2018-06-29T13:49:11.864Z,98202.16
2018-06-29T13:51:40.938Z,98196.95
2018-06-29T13:54:09.678Z,98186.27
2018-06-29T13:56:38.557Z,98188.38
2018-06-29T13:59:07.673Z,98187.96
2018-06-29T14:01:36.618Z,98173.09
2018-06-29T14:04:06.755Z,98177.47
2018-06-29T14:06:36.056Z,98184.77
2018-06-29T14:09:06.840Z,98174.89
2018-06-29T14:11:36.367Z,98168.20
2018-06-29T14:14:05.770Z,98167.05
2018-06-29T14:16:34.508Z,98172.16
2018-06-29T14:19:03.513Z,98166.49
2018-06-29T14:21:32.961Z,98166.50
2018-06-29T14:24:01.839Z,98161.76
2018-06-29T14:26:31.774Z,98160.88
2018-06-29T14:29:00.777Z,98161.65
2018-06-29T14:31:30.690Z,98158.73
2018-06-29T14:33:59.978Z,98153.20
2018-06-29T14:36:29.086Z,98153.88
2018-06-29T14:38:58.060Z,98148.09
2018-06-29T14:41:27.265Z,98151.10
2018-06-29T14:43:56.572Z,98140.30
2018-06-29T14:46:26.146Z,98144.17
2018-06-29T14:48:55.651Z,98139.52
2018-06-29T14:51:24.947Z,98137.70
2018-06-29T14:53:54.043Z,98140.60
2018-06-29T14:56:23.698Z,98139.05
2018-06-29T14:58:53.091Z,98134.81
2018-06-29T15:01:22.317Z,98141.78
2018-06-29T15:03:51.382Z,98141.27
2018-06-29T15:06:20.258Z,98134.05
2018-06-29T15:08:49.819Z,98132.65
2018-06-29T15:11:19.255Z,98123.80
2018-06-29T15:13:48.298Z,98117.08
2018-06-29T15:16:17.338Z,98125.67
2018-06-29T15:18:46.322Z,98125.62
2018-06-29T15:21:15.628Z,98128.90
2018-06-29T15:23:48.030Z,98125.58
2018-06-29T15:26:20.072Z,98126.31
2018-06-29T15:28:48.972Z,98116.47
2018-06-29T15:31:18.552Z,98129.94
2018-06-29T15:33:48.775Z,98123.28
2018-06-29T15:36:17.705Z,98122.81
2018-06-29T15:38:46.855Z,98124.47
2018-06-29T15:41:15.634Z,98120.45
2018-06-29T15:43:44.688Z,98120.66
2018-06-29T15:46:13.724Z,98120.98
2018-06-29T15:48:42.784Z,98108.91
2018-06-29T15:51:11.976Z,98106.59
2018-06-29T15:53:41.482Z,98108.61
2018-06-29T15:56:10.899Z,98109.59
2018-06-29T15:58:40.324Z,98104.23
2018-06-29T16:01:09.638Z,98098.67
2018-06-29T16:03:39.391Z,98104.88
2018-06-29T16:06:08.371Z,98106.47
2018-06-29T16:08:37.834Z,98110.23
2018-06-29T16:11:06.737Z,98102.35
2018-06-29T16:13:35.847Z,98091.78
2018-06-29T16:16:04.772Z,98095.31
2018-06-29T16:18:33.625Z,98090.58
2018-06-29T16:21:02.521Z,98096.16
2018-06-29T16:23:31.440Z,98093.75
2018-06-29T16:26:00.361Z,98092.78
2018-06-29T16:28:29.644Z,98088.04
2018-06-29T16:30:58.432Z,98090.13
2018-06-29T16:33:27.433Z,98091.08
2018-06-29T16:35:56.255Z,98094.97
2018-06-29T16:38:25.248Z,98088.79
2018-06-29T16:40:54.360Z,98080.42
2018-06-29T16:43:23.669Z,98082.02
2018-06-29T16:45:52.522Z,98079.77
2018-06-29T16:48:21.394Z,98084.89
2018-06-29T16:50:50.364Z,98087.47
2018-06-29T16:53:19.377Z,98089.52
2018-06-29T16:55:48.065Z,98083.06
2018-06-29T16:58:16.829Z,98083.63
2018-06-29T17:00:45.918Z,98079.08
2018-06-29T17:03:14.749Z,98076.75
2018-06-29T17:05:43.686Z,98080.41
2018-06-29T17:08:12.643Z,98067.05
2018-06-29T17:10:41.741Z,98069.39
2018-06-29T17:13:10.897Z,98074.80
2018-06-29T17:15:39.818Z,98070.69
2018-06-29T17:18:09.590Z,98066.25
2018-06-29T17:20:38.635Z,98060.40
2018-06-29T17:23:08.239Z,98060.83
2018-06-29T17:25:37.096Z,98068.91
2018-06-29T17:28:06.898Z,98062.44
2018-06-29T17:30:35.961Z,98060.95
2018-06-29T17:33:04.882Z,98062.70
2018-06-29T17:35:34.367Z,98060.48
2018-06-29T17:38:03.655Z,98060.80
2018-06-29T17:40:35.776Z,98052.03
2018-06-29T17:43:07.726Z,98063.92
2018-06-29T17:45:36.938Z,98058.97
2018-06-29T17:48:07.136Z,98061.36
2018-06-29T17:50:36.956Z,98058.95
2018-06-29T17:53:06.900Z,98062.58
2018-06-29T17:55:42.159Z,98063.63
2018-06-29T17:58:12.080Z,98055.86
2018-06-29T18:00:41.133Z,98066.80
2018-06-29T18:03:12.085Z,98063.13
2018-06-29T18:05:55.586Z,98061.58
2018-06-29T18:08:38.865Z,98057.93
2018-06-29T18:11:08.440Z,98068.48
2018-06-29T18:13:37.498Z,98060.42
2018-06-29T18:16:07.178Z,98060.75
2018-06-29T18:18:36.079Z,98065.44
2018-06-29T18:21:06.083Z,98071.99
2018-06-29T18:23:36.262Z,98074.00
2018-06-29T18:26:05.050Z,98071.88
2018-06-29T18:28:34.380Z,98072.71
2018-06-29T18:31:03.271Z,98073.85
2018-06-29T18:33:32.075Z,98072.72
2018-06-29T18:36:00.932Z,98071.88
2018-06-29T18:38:30.055Z,98075.41
2018-06-29T18:40:58.844Z,98077.33
2018-06-29T18:43:28.199Z,98073.83
2018-06-29T18:45:57.021Z,98073.88
2018-06-29T18:48:25.998Z,98083.98
2018-06-29T18:50:55.498Z,98085.30
2018-06-29T18:53:24.387Z,98081.75
2018-06-29T18:55:53.587Z,98084.02
2018-06-29T18:58:25.918Z,98082.38
2018-06-29T19:00:54.653Z,98085.02
2018-06-29T19:03:23.352Z,98086.22
2018-06-29T19:05:52.220Z,98084.98
2018-06-29T19:08:21.097Z,98088.06
2018-06-29T19:10:49.931Z,98085.75
2018-06-29T19:13:18.861Z,98095.67
2018-06-29T19:15:48.199Z,98093.11
2018-06-29T19:18:17.032Z,98093.64
2018-06-29T19:20:46.940Z,98088.62
2018-06-29T19:23:15.898Z,98092.47
2018-06-29T19:25:44.779Z,98093.20
2018-06-29T19:28:13.889Z,98090.23
2018-06-29T19:30:43.855Z,98089.67
2018-06-29T19:33:15.060Z,98094.50
2018-06-29T19:35:49.183Z,98095.07
2018-06-29T19:38:18.393Z,98097.02
2018-06-29T19:40:47.337Z,98100.36
2018-06-29T19:43:16.167Z,98111.37
2018-06-29T19:45:45.027Z,98112.47
2018-06-29T19:48:15.360Z,98113.35
2018-06-29T19:50:44.145Z,98110.03
2018-06-29T19:53:12.775Z,98114.92
2018-06-29T19:55:41.638Z,98114.68
2018-06-29T19:58:10.609Z,98117.76
2018-06-29T20:00:39.340Z,98117.13
2018-06-29T20:03:08.361Z,98123.43
2018-06-29T20:05:37.233Z,98127.20
2018-06-29T20:08:06.195Z,98123.02
2018-06-29T20:10:35.477Z,98130.56
2018-06-29T20:13:04.242Z,98126.13
2018-06-29T20:15:33.281Z,98123.77
2018-06-29T20:18:02.036Z,98126.08
2018-06-29T20:20:31.119Z,98119.65
2018-06-29T20:23:00.895Z,98116.69
2018-06-29T20:25:29.796Z,98125.52
2018-06-29T20:27:58.905Z,98132.85
2018-06-29T20:30:27.835Z,98132.43
2018-06-29T20:32:57.097Z,98131.58
2018-06-29T20:35:26.196Z,98132.14
2018-06-29T20:37:55.513Z,98135.63
2018-06-29T20:40:25.339Z,98133.98
2018-06-29T20:42:54.286Z,98135.98
2018-06-29T20:45:23.457Z,98138.36
2018-06-29T20:47:52.425Z,98144.86
2018-06-29T20:50:22.312Z,98145.68
2018-06-29T20:52:52.033Z,98144.50
2018-06-29T20:55:21.206Z,98147.38
2018-06-29T20:57:51.167Z,98147.16
2018-06-29T21:00:20.520Z,98152.66
2018-06-29T21:02:49.383Z,98149.41
2018-06-29T21:05:18.948Z,98150.06
2018-06-29T21:07:47.755Z,98149.74
2018-06-29T21:10:16.770Z,98142.59
2018-06-29T21:12:47.049Z,98144.20
2018-06-29T21:15:15.854Z,98143.94
2018-06-29T21:17:44.882Z,98147.69
2018-06-29T21:20:14.443Z,98148.39
2018-06-29T21:22:43.612Z,98149.19
2018-06-29T21:25:12.560Z,98149.27
2018-06-29T21:27:42.761Z,98152.56
2018-06-29T21:30:14.316Z,98145.38
2018-06-29T21:32:44.821Z,98144.62
2018-06-29T21:35:14.168Z,98151.95
2018-06-29T21:37:51.198Z,98151.05
2018-06-29T21:40:20.612Z,98147.82
2018-06-29T21:42:49.808Z,98151.02
2018-06-29T21:45:21.553Z,98149.61
2018-06-29T21:47:50.859Z,98147.53
2018-06-29T21:50:20.345Z,98155.64
2018-06-29T21:52:49.381Z,98152.61
2018-06-29T21:55:18.743Z,98155.11
2018-06-29T21:57:48.186Z,98149.98
2018-06-29T22:00:19.990Z,98145.80
2018-06-29T22:02:49.779Z,98151.61
2018-06-29T22:05:19.808Z,98146.75
2018-06-29T22:07:49.744Z,98148.67
2018-06-29T22:10:24.132Z,98148.98
2018-06-29T22:12:53.997Z,98143.16
2018-06-29T22:15:24.979Z,98138.38
2018-06-29T22:17:54.658Z,98140.68
2018-06-29T22:20:24.631Z,98135.81
2018-06-29T22:22:53.604Z,98130.92
2018-06-29T22:25:23.117Z,98132.54
2018-06-29T22:27:52.147Z,98138.86
2018-06-29T22:30:21.484Z,98139.06
2018-06-29T22:32:51.167Z,98139.55
2018-06-29T22:35:20.355Z,98138.28
2018-06-29T22:37:49.431Z,98138.77
2018-06-29T22:40:18.465Z,98138.09
2018-06-29T22:42:47.344Z,98137.06
2018-06-29T22:45:16.280Z,98134.37
2018-06-29T22:47:46.100Z,98137.25
2018-06-29T22:50:15.006Z,98140.28
2018-06-29T22:52:44.478Z,98134.17
2018-06-29T22:55:13.382Z,98134.73
2018-06-29T22:57:42.896Z,98137.82
2018-06-29T23:00:11.730Z,98133.98
2018-06-29T23:02:40.816Z,98135.42
2018-06-29T23:05:09.815Z,98130.08
2018-06-29T23:07:38.916Z,98133.55
2018-06-29T23:10:09.579Z,98137.39
2018-06-29T23:12:38.775Z,98130.48
2018-06-29T23:15:07.818Z,98137.37
2018-06-29T23:17:36.741Z,98138.97
2018-06-29T23:20:05.936Z,98136.66
2018-06-29T23:22:35.853Z,98132.84
2018-06-29T23:25:04.869Z,98133.62
2018-06-29T23:27:33.820Z,98123.39
2018-06-29T23:30:03.653Z,98123.98
2018-06-29T23:32:33.729Z,98130.55
2018-06-29T23:35:02.750Z,98122.14
2018-06-29T23:37:32.348Z,98123.88
2018-06-29T23:40:01.310Z,98121.09
2018-06-29T23:42:30.437Z,98122.41
2018-06-29T23:44:59.258Z,98120.11
2018-06-29T23:47:28.150Z,98118.00
2018-06-29T23:49:58.518Z,98121.05
2018-06-29T23:52:28.420Z,98115.75
2018-06-29T23:54:57.510Z,98105.15
2018-06-29T23:57:26.611Z,98111.52
2018-06-29T23:59:55.462Z,98108.37
